Fengning — 9V2173 — position and weather

sailwx.info

Track history (hours):
 
Tides and Currents Weather Stations Pressure Air Temp Water Temp Dewpoint Dewpoint Depression Visibility Wind Speed Wind Dir Waves Ship Positions

Fengning

Last reported at 2017-Nov-07 22:10 UTC. Time now 2017-Dec-12 06:37 UTC.
Position N 19°31' W 095°48'.
Warning: this ship's position is 34 days out of date.

Length 180 m; draft 6.7 m.

Type: Cargo ship. MMSI: 565831000.

Date/timePositionNaut miles runAvg speedWind from/ knotsBaromVisibWave heightAir tempDewpointWater temp
2017-Nov-07 22:10N 19°31' W 095°48'213.7
2017-Nov-07 22:01N 19°30' W 095°50'5 9.1
2017-Nov-07 21:31N 19°29' W 095°54'0 0.5
2017-Nov-07 21:01N 19°29' W 095°54'0 0.4
2017-Nov-07 20:30N 19°29' W 095°54'0 0.4
2017-Nov-07 20:01N 19°29' W 095°54'0 0.2
2017-Nov-07 19:31N 19°29' W 095°54'0 0.3
2017-Nov-07 19:00N 19°29' W 095°54'0 0.4
2017-Nov-07 18:30N 19°29' W 095°54'0 0.4
2017-Nov-07 18:00N 19°30' W 095°54'0 0.4
2017-Nov-07 17:31N 19°30' W 095°54'0 0.3
2017-Nov-07 17:00N 19°30' W 095°54'0 0.3
2017-Nov-07 16:31N 19°30' W 095°54'0 0.2
2017-Nov-07 16:00N 19°30' W 095°54'0 0.2
2017-Nov-07 15:31N 19°30' W 095°54'0 0.2
2017-Nov-07 15:01N 19°30' W 095°54'0 0.2
2017-Nov-07 14:31N 19°30' W 095°54'0 0.1
2017-Nov-07 14:01N 19°31' W 095°54'0 0.0
2017-Nov-07 13:30N 19°30' W 095°54'0 0.2
2017-Nov-07 13:00N 19°30' W 095°53'0 0.3
2017-Nov-07 12:29N 19°31' W 095°53'0 0.2
2017-Nov-07 12:01N 19°31' W 095°53'0 0.1
2017-Nov-07 11:21N 19°31' W 095°53'0 0.1
2017-Nov-07 11:01N 19°31' W 095°53'0 0.2
2017-Nov-07 10:27N 19°31' W 095°53'0 0.2
2017-Nov-07 09:57N 19°31' W 095°53'0 0.2
2017-Nov-07 09:31N 19°31' W 095°53'0 0.2
2017-Nov-07 08:59N 19°31' W 095°53'0 0.1
2017-Nov-07 08:29N 19°31' W 095°53'0 0.1
2017-Nov-07 08:00N 19°31' W 095°53'0 0.1
2017-Nov-07 07:15N 19°31' W 095°53'0 0.1
2017-Nov-07 06:06N 19°31' W 095°52'0 0.1
2017-Nov-07 06:00N 19°31' W 095°52'0 0.1
2017-Nov-07 05:31N 19°31' W 095°52'0 0.1
2017-Nov-07 04:22N 19°31' W 095°52'0 0.0
2017-Nov-07 03:58N 19°31' W 095°52'0 0.0
2017-Nov-07 03:06N 19°31' W 095°52'0 0.1
2017-Nov-07 02:46N 19°31' W 095°52'0 0.1
2017-Nov-07 02:29N 19°31' W 095°52'0 0.1
2017-Nov-07 02:00N 19°31' W 095°52'0 0.1
2017-Nov-07 00:14N 19°31' W 095°52'0 0.1
2017-Nov-07 00:01N 19°31' W 095°52'0 0.1
2017-Nov-06 23:28N 19°31' W 095°52'0 0.1
2017-Nov-06 22:50N 19°31' W 095°52'0 0.1
2017-Nov-06 22:28N 19°31' W 095°52'0 0.0
2017-Nov-06 21:59N 19°31' W 095°52'0 0.1
2017-Nov-06 21:22N 19°31' W 095°52'0 0.1
2017-Nov-06 20:29N 19°31' W 095°53'3 0.2
2017-Nov-06 02:30N 19°28' W 095°51'0 0.2
2017-Nov-06 01:58N 19°28' W 095°51'0 0.2
2017-Nov-06 01:30N 19°28' W 095°51'0 0.3
2017-Nov-06 01:01N 19°29' W 095°51'0 0.3
2017-Nov-06 00:30N 19°29' W 095°51'0 0.3
2017-Nov-06 00:00N 19°29' W 095°51'0 0.3
2017-Nov-05 23:30N 19°29' W 095°51'0 0.2
2017-Nov-05 23:00N 19°29' W 095°51'0 0.1
2017-Nov-05 22:31N 19°29' W 095°51'0 0.2
2017-Nov-05 22:01N 19°29' W 095°51'0 0.2
2017-Nov-05 21:29N 19°29' W 095°51'0 0.3
2017-Nov-05 20:55N 19°29' W 095°51'0 0.2
2017-Nov-05 20:30N 19°29' W 095°51'0 0.2
2017-Nov-05 20:00N 19°29' W 095°51'3 5.1
2017-Nov-05 19:22N 19°26' W 095°53'411.1
2017-Nov-05 19:00N 19°23' W 095°55'611.1
2017-Nov-05 18:31N 19°18' W 095°57'510.1
2017-Nov-05 18:01N 19°13' W 095°60'5 9.4
2017-Nov-05 17:30N 19°12' W 096°04'3 7.0
2017-Nov-05 17:01N 19°12' W 096°08'0 0.4
2017-Nov-05 16:28N 19°13' W 096°08'0 0.0
2017-Nov-05 15:58N 19°13' W 096°08'0 0.0
2017-Nov-05 15:22N 19°13' W 096°08'0 0.0
2017-Nov-05 14:43N 19°13' W 096°08'0 0.0
2017-Nov-05 14:25N 19°13' W 096°08'0 0.0
2017-Nov-05 13:52N 19°13' W 096°08'0 0.0
2017-Nov-05 13:25N 19°13' W 096°08'0 0.0
2017-Nov-05 12:58N 19°13' W 096°08'0 0.0
2017-Nov-05 12:28N 19°13' W 096°08'0 0.0
2017-Nov-05 11:58N 19°13' W 096°08'0 0.0
2017-Nov-05 11:28N 19°13' W 096°08'0 0.0
2017-Nov-05 10:58N 19°13' W 096°08'0 0.0
2017-Nov-05 10:28N 19°13' W 096°08'0 0.0
2017-Nov-05 09:58N 19°13' W 096°08'0 0.0
2017-Nov-05 09:22N 19°13' W 096°08'0 0.0
2017-Nov-05 08:58N 19°13' W 096°08'0 0.0
2017-Nov-05 08:28N 19°13' W 096°08'0 0.0
2017-Nov-05 07:58N 19°13' W 096°08'0 0.0
2017-Nov-05 07:28N 19°13' W 096°08'0 0.0
2017-Nov-05 06:52N 19°13' W 096°08'0 0.0
2017-Nov-05 06:28N 19°13' W 096°08'0 0.0
2017-Nov-05 05:58N 19°13' W 096°08'0 0.0
2017-Nov-05 05:25N 19°13' W 096°08'0 0.0
2017-Nov-05 04:58N 19°13' W 096°08'0 0.0
2017-Nov-05 04:28N 19°13' W 096°08'0 0.0
2017-Nov-05 03:58N 19°13' W 096°08'0 0.0
2017-Nov-05 03:28N 19°13' W 096°08'0 0.0
2017-Nov-05 02:58N 19°13' W 096°08'0 0.0
2017-Nov-05 02:28N 19°13' W 096°08'0 0.0
2017-Nov-05 01:58N 19°13' W 096°08'0 0.0
2017-Nov-05 01:25N 19°13' W 096°08'0 0.0
2017-Nov-05 00:58N 19°13' W 096°08'0 0.0
2017-Nov-05 00:28N 19°13' W 096°08'0 0.0
2017-Nov-04 23:55N 19°13' W 096°08'0 0.0
2017-Nov-04 23:28N 19°13' W 096°08'0 0.0
2017-Nov-04 22:58N 19°13' W 096°08'0 0.0
2017-Nov-04 22:22N 19°13' W 096°08'0 0.0
2017-Nov-04 21:58N 19°13' W 096°08'0 0.0
2017-Nov-04 21:28N 19°13' W 096°08'0 0.0
2017-Nov-04 20:58N 19°13' W 096°08'0 0.0
2017-Nov-04 20:25N 19°13' W 096°08'0 0.0
2017-Nov-04 19:55N 19°13' W 096°08'0 0.0
2017-Nov-04 19:28N 19°13' W 096°08'0 0.0
2017-Nov-04 18:58N 19°13' W 096°08'0 0.0
2017-Nov-04 18:28N 19°13' W 096°08'0 0.0
2017-Nov-04 17:58N 19°13' W 096°08'0 0.0
2017-Nov-04 17:25N 19°13' W 096°08'0 0.0
2017-Nov-04 16:58N 19°13' W 096°08'0 0.0
2017-Nov-04 16:28N 19°13' W 096°08'0 0.0
2017-Nov-04 15:52N 19°13' W 096°08'0 0.0
2017-Nov-04 15:28N 19°13' W 096°08'0 0.0
2017-Nov-04 14:58N 19°13' W 096°08'0 0.0
2017-Nov-04 14:28N 19°13' W 096°08'0 0.0
2017-Nov-04 13:58N 19°13' W 096°08'0 0.0
2017-Nov-04 13:28N 19°13' W 096°08'0 0.0
2017-Nov-04 12:58N 19°13' W 096°08'0 0.0
2017-Nov-04 12:28N 19°13' W 096°08'0 0.0
2017-Nov-04 11:58N 19°13' W 096°08'0 0.0
2017-Nov-04 11:28N 19°13' W 096°08'0 0.0
2017-Nov-04 10:55N 19°13' W 096°08'0 0.0
2017-Nov-04 10:28N 19°13' W 096°08'0 0.0
2017-Nov-04 09:58N 19°13' W 096°08'0 0.0
2017-Nov-04 09:25N 19°13' W 096°08'0 0.0
2017-Nov-04 08:58N 19°13' W 096°08'0 0.0
2017-Nov-04 08:28N 19°13' W 096°08'0 0.0
2017-Nov-04 07:55N 19°13' W 096°08'0 0.0
2017-Nov-04 07:28N 19°13' W 096°08'0 0.0
2017-Nov-04 06:55N 19°13' W 096°08'0 0.0
2017-Nov-04 06:25N 19°13' W 096°08'0 0.0
2017-Nov-04 05:58N 19°13' W 096°08'0 0.0
2017-Nov-04 05:25N 19°13' W 096°08'0 0.0
2017-Nov-04 04:58N 19°13' W 096°08'0 0.0
2017-Nov-04 04:28N 19°13' W 096°08'0 0.0
2017-Nov-04 03:58N 19°13' W 096°08'0 0.0
2017-Nov-04 03:28N 19°13' W 096°08'0 0.0
2017-Nov-04 02:58N 19°13' W 096°08'0 0.0
2017-Nov-04 02:28N 19°13' W 096°08'0 0.0
2017-Nov-04 01:58N 19°13' W 096°08'0 0.0
2017-Nov-04 01:19N 19°13' W 096°08'0 0.0
2017-Nov-04 00:58N 19°13' W 096°08'0 0.0
2017-Nov-04 00:28N 19°13' W 096°08'0 0.0
2017-Nov-03 23:58N 19°13' W 096°08'0 0.0
2017-Nov-03 23:28N 19°13' W 096°08'0 0.0
2017-Nov-03 22:58N 19°13' W 096°08'0 0.0
2017-Nov-03 22:28N 19°13' W 096°08'0 0.0
2017-Nov-03 21:52N 19°13' W 096°08'0 0.0
2017-Nov-03 21:22N 19°13' W 096°08'0 0.0
2017-Nov-03 20:46N 19°13' W 096°08'0 0.0
2017-Nov-03 20:28N 19°13' W 096°08'0 0.0
2017-Nov-03 19:58N 19°13' W 096°08'0 0.0
2017-Nov-03 19:28N 19°13' W 096°08'0 0.0
2017-Nov-03 18:58N 19°13' W 096°08'0 0.0
2017-Nov-03 18:28N 19°13' W 096°08'0 0.0
2017-Nov-03 17:58N 19°13' W 096°08'0 0.0
2017-Nov-03 17:28N 19°13' W 096°08'0 0.0
2017-Nov-03 16:58N 19°13' W 096°08'0 0.0
2017-Nov-03 16:22N 19°13' W 096°08'0 0.0
2017-Nov-03 15:58N 19°13' W 096°08'0 0.0
2017-Nov-03 15:28N 19°13' W 096°08'0 0.0
2017-Nov-03 14:58N 19°13' W 096°08'0 0.0
2017-Nov-03 14:28N 19°13' W 096°08'0 0.0
2017-Nov-03 13:58N 19°13' W 096°08'0 0.0
2017-Nov-03 13:22N 19°13' W 096°08'0 0.0
2017-Nov-03 12:58N 19°13' W 096°08'0 0.0
2017-Nov-03 12:28N 19°13' W 096°08'0 0.0
2017-Nov-03 11:55N 19°13' W 096°08'0 0.0
2017-Nov-03 11:28N 19°13' W 096°08'0 0.0
2017-Nov-03 10:46N 19°13' W 096°08'0 0.0
2017-Nov-03 10:28N 19°13' W 096°08'0 0.0
2017-Nov-03 09:52N 19°13' W 096°08'0 0.0
2017-Nov-03 09:19N 19°13' W 096°08'0 0.0
2017-Nov-03 08:58N 19°13' W 096°08'0 0.0
2017-Nov-03 08:28N 19°13' W 096°08'0 0.0
2017-Nov-03 07:58N 19°13' W 096°08'0 0.0
2017-Nov-03 07:28N 19°13' W 096°08'0 0.0
2017-Nov-03 06:55N 19°13' W 096°08'0 0.0
2017-Nov-03 06:28N 19°13' W 096°08'0 0.0
2017-Nov-03 05:58N 19°13' W 096°08'0 0.0
2017-Nov-03 05:28N 19°13' W 096°08'0 0.0
2017-Nov-03 04:58N 19°13' W 096°08'0 0.0
2017-Nov-03 04:28N 19°13' W 096°08'0 0.0
2017-Nov-03 03:55N 19°13' W 096°08'0 0.0
2017-Nov-03 03:28N 19°13' W 096°08'0 0.0
2017-Nov-03 02:58N 19°13' W 096°08'0 0.0
2017-Nov-03 02:28N 19°13' W 096°08'0 0.0
2017-Nov-03 01:58N 19°13' W 096°08'0 0.0
2017-Nov-03 01:28N 19°13' W 096°08'0 0.0
2017-Nov-03 00:58N 19°13' W 096°08'0 0.0
2017-Nov-03 00:28N 19°13' W 096°08'0 0.0
2017-Nov-03 00:00N 19°13' W 096°08'0 0.1
2017-Nov-02 23:28N 19°12' W 096°08'0 0.0
2017-Nov-02 22:58N 19°12' W 096°08'0 0.0
2017-Nov-02 22:28N 19°12' W 096°08'0 0.0
2017-Nov-02 21:58N 19°12' W 096°08'0 0.0
2017-Nov-02 21:28N 19°12' W 096°08'0 0.0
2017-Nov-02 20:58N 19°12' W 096°08'0 0.0
2017-Nov-02 20:28N 19°12' W 096°08'0 0.0
2017-Nov-02 19:58N 19°12' W 096°08'0 0.0
2017-Nov-02 19:28N 19°12' W 096°08'0 0.0
2017-Nov-02 18:58N 19°12' W 096°08'0 0.0
2017-Nov-02 18:28N 19°12' W 096°08'0 0.0
2017-Nov-02 17:58N 19°12' W 096°08'0 0.0
2017-Nov-02 17:25N 19°12' W 096°08'0 0.0
2017-Nov-02 16:58N 19°12' W 096°08'0 0.0
2017-Nov-02 16:28N 19°12' W 096°08'0 0.0
2017-Nov-02 15:52N 19°12' W 096°08'0 0.0
2017-Nov-02 15:28N 19°12' W 096°08'0 0.0
2017-Nov-02 14:58N 19°12' W 096°08'0 0.0
2017-Nov-02 14:28N 19°12' W 096°08'0 0.0
2017-Nov-02 13:58N 19°12' W 096°08'0 0.0
2017-Nov-02 13:28N 19°12' W 096°08'0 0.0
2017-Nov-02 12:58N 19°12' W 096°08'0 0.0
2017-Nov-02 12:28N 19°12' W 096°08'0 0.0
2017-Nov-02 11:58N 19°12' W 096°08'0 0.0
2017-Nov-02 11:28N 19°12' W 096°08'0 0.0
2017-Nov-02 10:58N 19°12' W 096°08'0 0.0
2017-Nov-02 10:28N 19°12' W 096°08'0 0.0
2017-Nov-02 09:58N 19°12' W 096°08'0 0.0
2017-Nov-02 09:28N 19°12' W 096°08'0 0.0
2017-Nov-02 08:58N 19°12' W 096°08'0 0.0
2017-Nov-02 08:25N 19°12' W 096°08'0 0.0
2017-Nov-02 07:58N 19°12' W 096°08'0 0.0
2017-Nov-02 07:25N 19°12' W 096°08'0 0.0
2017-Nov-02 06:58N 19°12' W 096°08'0 0.0
2017-Nov-02 06:28N 19°12' W 096°08'0 0.0
2017-Nov-02 05:58N 19°12' W 096°08'0 0.0
2017-Nov-02 05:28N 19°12' W 096°08'0 0.0
2017-Nov-02 04:58N 19°12' W 096°08'0 0.0
2017-Nov-02 04:28N 19°12' W 096°08'0 0.0
2017-Nov-02 03:58N 19°12' W 096°08'0 0.0
2017-Nov-02 03:28N 19°12' W 096°08'0 0.0
2017-Nov-02 02:58N 19°12' W 096°08'0 0.0
2017-Nov-02 02:25N 19°12' W 096°08'0 0.0
2017-Nov-02 01:58N 19°12' W 096°08'0 0.0
2017-Nov-02 01:28N 19°12' W 096°08'0 0.0
2017-Nov-02 00:58N 19°12' W 096°08'0 0.0
2017-Nov-02 00:28N 19°12' W 096°08'0 0.0
2017-Nov-01 23:58N 19°12' W 096°08'0 0.0
2017-Nov-01 23:28N 19°12' W 096°08'0 0.0
2017-Nov-01 22:58N 19°12' W 096°08'0 0.0
2017-Nov-01 22:28N 19°12' W 096°08'0 0.0
2017-Nov-01 21:58N 19°12' W 096°08'0 0.0
2017-Nov-01 21:28N 19°12' W 096°08'0 0.0
2017-Nov-01 20:58N 19°12' W 096°08'0 0.0
2017-Nov-01 20:28N 19°12' W 096°08'0 0.0
2017-Nov-01 19:58N 19°12' W 096°08'0 0.0
2017-Nov-01 19:28N 19°12' W 096°08'0 0.0
2017-Nov-01 18:58N 19°12' W 096°08'0 0.0
2017-Nov-01 18:28N 19°12' W 096°08'0 0.0
2017-Oct-31 20:35N 19°12' W 096°08'0 0.0
2017-Oct-31 20:29N 19°12' W 096°08'0 0.0
2017-Oct-31 19:59N 19°12' W 096°08'0 0.0
2017-Oct-31 19:29N 19°12' W 096°08'0 0.0
2017-Oct-31 18:59N 19°12' W 096°08'0 0.0
2017-Oct-31 18:29N 19°12' W 096°08'0 0.0
2017-Oct-31 17:59N 19°12' W 096°08'0 0.0
2017-Oct-31 17:29N 19°12' W 096°08'0 0.0
2017-Oct-31 16:59N 19°12' W 096°08'0 0.0
2017-Oct-31 16:29N 19°12' W 096°08'0 0.0
2017-Oct-31 15:59N 19°12' W 096°08'0 0.0
2017-Oct-31 15:23N 19°12' W 096°08'0 0.0
2017-Oct-31 14:59N 19°12' W 096°08'0 0.0
2017-Oct-31 14:29N 19°12' W 096°08'0 0.0
2017-Oct-31 13:59N 19°12' W 096°08'0 0.0
2017-Oct-31 13:29N 19°12' W 096°08'0 0.0
2017-Oct-31 12:59N 19°12' W 096°08'0 0.0
2017-Oct-31 12:29N 19°12' W 096°08'0 0.0
2017-Oct-31 11:59N 19°12' W 096°08'0 0.0
2017-Oct-31 11:29N 19°12' W 096°08'0 0.0
2017-Oct-31 10:59N 19°12' W 096°08'0 0.0
2017-Oct-31 10:29N 19°12' W 096°08'0 0.0
2017-Oct-31 09:59N 19°12' W 096°08'0 0.0
2017-Oct-31 09:23N 19°12' W 096°08'0 0.0
2017-Oct-31 08:59N 19°12' W 096°08'0 0.0
2017-Oct-31 08:29N 19°12' W 096°08'0 0.0
2017-Oct-31 07:59N 19°12' W 096°08'0 0.0
2017-Oct-31 07:29N 19°12' W 096°08'0 0.0
2017-Oct-31 06:59N 19°12' W 096°08'0 0.0
2017-Oct-31 06:29N 19°12' W 096°08'0 0.0
2017-Oct-31 05:59N 19°12' W 096°08'0 0.0
2017-Oct-31 05:29N 19°12' W 096°08'0 0.0
2017-Oct-31 04:59N 19°12' W 096°08'0 0.0
2017-Oct-31 04:29N 19°12' W 096°08'0 0.0
2017-Oct-31 03:59N 19°12' W 096°08'0 0.0
2017-Oct-31 03:29N 19°12' W 096°08'0 0.0
2017-Oct-31 02:59N 19°12' W 096°08'0 0.0
2017-Oct-31 02:29N 19°12' W 096°08'0 0.0
2017-Oct-31 01:59N 19°12' W 096°08'0 0.0
2017-Oct-31 01:29N 19°12' W 096°08'0 0.0
2017-Oct-31 00:59N 19°12' W 096°08'0 0.0
2017-Oct-31 00:29N 19°12' W 096°08'0 0.0
2017-Oct-30 23:59N 19°12' W 096°08'0 0.0
2017-Oct-30 23:29N 19°12' W 096°08'0 0.0
2017-Oct-30 22:59N 19°12' W 096°08'0 0.0
2017-Oct-30 22:29N 19°12' W 096°08'0 0.0
2017-Oct-30 21:59N 19°12' W 096°08'0 0.0
2017-Oct-30 21:29N 19°12' W 096°08'0 0.0
2017-Oct-30 20:59N 19°12' W 096°08'0 0.0
2017-Oct-30 20:29N 19°12' W 096°08'0 0.0
2017-Oct-30 19:59N 19°12' W 096°08'0 0.0
2017-Oct-30 19:29N 19°12' W 096°08'0 0.0
2017-Oct-30 18:59N 19°12' W 096°08'0 0.0
2017-Oct-30 18:29N 19°12' W 096°08'0 0.0
2017-Oct-30 17:59N 19°12' W 096°08'0 0.0
2017-Oct-30 17:23N 19°12' W 096°08'0 0.0
2017-Oct-30 16:59N 19°12' W 096°08'0 0.0
2017-Oct-30 16:29N 19°12' W 096°08'0 0.0
2017-Oct-30 15:59N 19°12' W 096°08'0 0.0
2017-Oct-30 15:29N 19°12' W 096°08'0 0.0
2017-Oct-30 14:59N 19°12' W 096°08'0 0.0
2017-Oct-30 14:29N 19°12' W 096°08'0 0.0
2017-Oct-30 13:29N 19°12' W 096°08'0 0.0
2017-Oct-30 12:59N 19°12' W 096°08'0 0.0
2017-Oct-30 12:29N 19°12' W 096°08'0 0.0
2017-Oct-30 11:59N 19°12' W 096°08'0 0.0
2017-Oct-30 11:29N 19°12' W 096°08'0 0.0
2017-Oct-30 10:59N 19°12' W 096°08'0 0.0
2017-Oct-30 10:29N 19°12' W 096°08'0 0.0
2017-Oct-30 09:59N 19°12' W 096°08'0 0.0
2017-Oct-30 09:29N 19°12' W 096°08'0 0.0
2017-Oct-30 08:59N 19°12' W 096°08'0 0.0
2017-Oct-30 08:29N 19°12' W 096°08'0 0.0
2017-Oct-30 07:53N 19°12' W 096°08'0 0.0
2017-Oct-30 07:29N 19°12' W 096°08'0 0.0
2017-Oct-30 06:59N 19°12' W 096°08'0 0.0
2017-Oct-30 06:29N 19°12' W 096°08'0 0.0
2017-Oct-30 05:59N 19°12' W 096°08'0 0.0
2017-Oct-30 05:29N 19°12' W 096°08'0 0.0
2017-Oct-30 04:59N 19°12' W 096°08'0 0.0
2017-Oct-30 04:29N 19°12' W 096°08'0 0.0
2017-Oct-30 03:59N 19°12' W 096°08'0 0.0
2017-Oct-30 03:29N 19°12' W 096°08'0 0.0
2017-Oct-30 02:59N 19°12' W 096°08'0 0.0
2017-Oct-30 02:29N 19°12' W 096°08'0 0.0
2017-Oct-30 01:59N 19°12' W 096°08'0 0.0
2017-Oct-30 01:29N 19°12' W 096°08'0 0.0
2017-Oct-30 00:59N 19°12' W 096°08'0 0.0
2017-Oct-30 00:29N 19°12' W 096°08'0 0.0
2017-Oct-29 23:59N 19°12' W 096°08'0 0.0
2017-Oct-29 23:29N 19°12' W 096°08'0 0.0
2017-Oct-29 22:59N 19°12' W 096°08'0 0.0
2017-Oct-29 22:29N 19°12' W 096°08'0 0.0
2017-Oct-29 21:59N 19°12' W 096°08'0 0.0
2017-Oct-29 21:29N 19°12' W 096°08'0 0.0
2017-Oct-29 20:59N 19°12' W 096°08'0 0.0
2017-Oct-29 20:23N 19°12' W 096°08'0 0.0
2017-Oct-29 19:59N 19°12' W 096°08'0 0.0
2017-Oct-29 19:29N 19°12' W 096°08'0 0.0
2017-Oct-29 18:59N 19°12' W 096°08'0 0.0
2017-Oct-29 18:29N 19°12' W 096°08'0 0.0
2017-Oct-29 17:59N 19°12' W 096°08'0 0.0
2017-Oct-29 17:29N 19°12' W 096°08'0 0.0
2017-Oct-29 16:59N 19°12' W 096°08'0 0.0
2017-Oct-29 16:29N 19°12' W 096°08'0 0.0
2017-Oct-29 15:59N 19°12' W 096°08'0 0.0
2017-Oct-29 15:29N 19°12' W 096°08'0 0.0
2017-Oct-29 14:59N 19°12' W 096°08'0 0.0
2017-Oct-29 14:29N 19°12' W 096°08'0 0.0
2017-Oct-29 13:59N 19°12' W 096°08'0 0.0
2017-Oct-29 13:29N 19°12' W 096°08'0 0.0
2017-Oct-29 12:59N 19°12' W 096°08'0 0.0
2017-Oct-29 12:29N 19°12' W 096°08'0 0.0
2017-Oct-29 11:59N 19°12' W 096°08'0 0.0
2017-Oct-29 11:29N 19°12' W 096°08'0 0.0
2017-Oct-29 10:59N 19°12' W 096°08'0 0.0
2017-Oct-29 10:29N 19°12' W 096°08'0 0.0
2017-Oct-29 09:59N 19°12' W 096°08'0 0.0
2017-Oct-29 09:29N 19°12' W 096°08'0 0.0
2017-Oct-29 08:59N 19°12' W 096°08'0 0.0
2017-Oct-29 08:29N 19°12' W 096°08'0 0.0
2017-Oct-29 07:59N 19°12' W 096°08'0 0.0
2017-Oct-29 07:29N 19°12' W 096°08'0 0.0
2017-Oct-29 06:59N 19°12' W 096°08'0 0.0
2017-Oct-29 06:29N 19°12' W 096°08'0 0.0
2017-Oct-29 05:59N 19°12' W 096°08'0 0.0
2017-Oct-29 05:29N 19°12' W 096°08'0 0.0
2017-Oct-29 04:59N 19°12' W 096°08'0 0.0
2017-Oct-29 04:29N 19°12' W 096°08'0 0.0
2017-Oct-29 03:59N 19°12' W 096°08'  
Track history (hours):
 
Tides and Currents Weather Stations Pressure Air Temp Water Temp Dewpoint Dewpoint Depression Visibility Wind Speed Wind Dir Waves Ship Positions

Fengning

Last reported at 2017-Nov-07 22:10 UTC. Time now 2017-Dec-12 06:37 UTC.
Position N 19°31' W 095°48'.
Warning: this ship's position is 34 days out of date.

Length 180 m; draft 6.7 m.

Type: Cargo ship. MMSI: 565831000.

Date/timePositionNaut miles runAvg speedWind from/ knotsBaromVisibWave heightAir tempDewpointWater temp
2017-Nov-07 22:10N 19°31' W 095°48'213.7
2017-Nov-07 22:01N 19°30' W 095°50'5 9.1
2017-Nov-07 21:31N 19°29' W 095°54'0 0.5
2017-Nov-07 21:01N 19°29' W 095°54'0 0.4
2017-Nov-07 20:30N 19°29' W 095°54'0 0.4
2017-Nov-07 20:01N 19°29' W 095°54'0 0.2
2017-Nov-07 19:31N 19°29' W 095°54'0 0.3
2017-Nov-07 19:00N 19°29' W 095°54'0 0.4
2017-Nov-07 18:30N 19°29' W 095°54'0 0.4
2017-Nov-07 18:00N 19°30' W 095°54'0 0.4
2017-Nov-07 17:31N 19°30' W 095°54'0 0.3
2017-Nov-07 17:00N 19°30' W 095°54'0 0.3
2017-Nov-07 16:31N 19°30' W 095°54'0 0.2
2017-Nov-07 16:00N 19°30' W 095°54'0 0.2
2017-Nov-07 15:31N 19°30' W 095°54'0 0.2
2017-Nov-07 15:01N 19°30' W 095°54'0 0.2
2017-Nov-07 14:31N 19°30' W 095°54'0 0.1
2017-Nov-07 14:01N 19°31' W 095°54'0 0.0
2017-Nov-07 13:30N 19°30' W 095°54'0 0.2
2017-Nov-07 13:00N 19°30' W 095°53'0 0.3
2017-Nov-07 12:29N 19°31' W 095°53'0 0.2
2017-Nov-07 12:01N 19°31' W 095°53'0 0.1
2017-Nov-07 11:21N 19°31' W 095°53'0 0.1
2017-Nov-07 11:01N 19°31' W 095°53'0 0.2
2017-Nov-07 10:27N 19°31' W 095°53'0 0.2
2017-Nov-07 09:57N 19°31' W 095°53'0 0.2
2017-Nov-07 09:31N 19°31' W 095°53'0 0.2
2017-Nov-07 08:59N 19°31' W 095°53'0 0.1
2017-Nov-07 08:29N 19°31' W 095°53'0 0.1
2017-Nov-07 08:00N 19°31' W 095°53'0 0.1
2017-Nov-07 07:15N 19°31' W 095°53'0 0.1
2017-Nov-07 06:06N 19°31' W 095°52'0 0.1
2017-Nov-07 06:00N 19°31' W 095°52'0 0.1
2017-Nov-07 05:31N 19°31' W 095°52'0 0.1
2017-Nov-07 04:22N 19°31' W 095°52'0 0.0
2017-Nov-07 03:58N 19°31' W 095°52'0 0.0
2017-Nov-07 03:06N 19°31' W 095°52'0 0.1
2017-Nov-07 02:46N 19°31' W 095°52'0 0.1
2017-Nov-07 02:29N 19°31' W 095°52'0 0.1
2017-Nov-07 02:00N 19°31' W 095°52'0 0.1
2017-Nov-07 00:14N 19°31' W 095°52'0 0.1
2017-Nov-07 00:01N 19°31' W 095°52'0 0.1
2017-Nov-06 23:28N 19°31' W 095°52'0 0.1
2017-Nov-06 22:50N 19°31' W 095°52'0 0.1
2017-Nov-06 22:28N 19°31' W 095°52'0 0.0
2017-Nov-06 21:59N 19°31' W 095°52'0 0.1
2017-Nov-06 21:22N 19°31' W 095°52'0 0.1
2017-Nov-06 20:29N 19°31' W 095°53'3 0.2
2017-Nov-06 02:30N 19°28' W 095°51'0 0.2
2017-Nov-06 01:58N 19°28' W 095°51'0 0.2
2017-Nov-06 01:30N 19°28' W 095°51'0 0.3
2017-Nov-06 01:01N 19°29' W 095°51'0 0.3
2017-Nov-06 00:30N 19°29' W 095°51'0 0.3
2017-Nov-06 00:00N 19°29' W 095°51'0 0.3
2017-Nov-05 23:30N 19°29' W 095°51'0 0.2
2017-Nov-05 23:00N 19°29' W 095°51'0 0.1
2017-Nov-05 22:31N 19°29' W 095°51'0 0.2
2017-Nov-05 22:01N 19°29' W 095°51'0 0.2
2017-Nov-05 21:29N 19°29' W 095°51'0 0.3
2017-Nov-05 20:55N 19°29' W 095°51'0 0.2
2017-Nov-05 20:30N 19°29' W 095°51'0 0.2
2017-Nov-05 20:00N 19°29' W 095°51'3 5.1
2017-Nov-05 19:22N 19°26' W 095°53'411.1
2017-Nov-05 19:00N 19°23' W 095°55'611.1
2017-Nov-05 18:31N 19°18' W 095°57'510.1
2017-Nov-05 18:01N 19°13' W 095°60'5 9.4
2017-Nov-05 17:30N 19°12' W 096°04'3 7.0
2017-Nov-05 17:01N 19°12' W 096°08'0 0.4
2017-Nov-05 16:28N 19°13' W 096°08'0 0.0
2017-Nov-05 15:58N 19°13' W 096°08'0 0.0
2017-Nov-05 15:22N 19°13' W 096°08'0 0.0
2017-Nov-05 14:43N 19°13' W 096°08'0 0.0
2017-Nov-05 14:25N 19°13' W 096°08'0 0.0
2017-Nov-05 13:52N 19°13' W 096°08'0 0.0
2017-Nov-05 13:25N 19°13' W 096°08'0 0.0
2017-Nov-05 12:58N 19°13' W 096°08'0 0.0
2017-Nov-05 12:28N 19°13' W 096°08'0 0.0
2017-Nov-05 11:58N 19°13' W 096°08'0 0.0
2017-Nov-05 11:28N 19°13' W 096°08'0 0.0
2017-Nov-05 10:58N 19°13' W 096°08'0 0.0
2017-Nov-05 10:28N 19°13' W 096°08'0 0.0
2017-Nov-05 09:58N 19°13' W 096°08'0 0.0
2017-Nov-05 09:22N 19°13' W 096°08'0 0.0
2017-Nov-05 08:58N 19°13' W 096°08'0 0.0
2017-Nov-05 08:28N 19°13' W 096°08'0 0.0
2017-Nov-05 07:58N 19°13' W 096°08'0 0.0
2017-Nov-05 07:28N 19°13' W 096°08'0 0.0
2017-Nov-05 06:52N 19°13' W 096°08'0 0.0
2017-Nov-05 06:28N 19°13' W 096°08'0 0.0
2017-Nov-05 05:58N 19°13' W 096°08'0 0.0
2017-Nov-05 05:25N 19°13' W 096°08'0 0.0
2017-Nov-05 04:58N 19°13' W 096°08'0 0.0
2017-Nov-05 04:28N 19°13' W 096°08'0 0.0
2017-Nov-05 03:58N 19°13' W 096°08'0 0.0
2017-Nov-05 03:28N 19°13' W 096°08'0 0.0
2017-Nov-05 02:58N 19°13' W 096°08'0 0.0
2017-Nov-05 02:28N 19°13' W 096°08'0 0.0
2017-Nov-05 01:58N 19°13' W 096°08'0 0.0
2017-Nov-05 01:25N 19°13' W 096°08'0 0.0
2017-Nov-05 00:58N 19°13' W 096°08'0 0.0
2017-Nov-05 00:28N 19°13' W 096°08'0 0.0
2017-Nov-04 23:55N 19°13' W 096°08'0 0.0
2017-Nov-04 23:28N 19°13' W 096°08'0 0.0
2017-Nov-04 22:58N 19°13' W 096°08'0 0.0
2017-Nov-04 22:22N 19°13' W 096°08'0 0.0
2017-Nov-04 21:58N 19°13' W 096°08'0 0.0
2017-Nov-04 21:28N 19°13' W 096°08'0 0.0
2017-Nov-04 20:58N 19°13' W 096°08'0 0.0
2017-Nov-04 20:25N 19°13' W 096°08'0 0.0
2017-Nov-04 19:55N 19°13' W 096°08'0 0.0
2017-Nov-04 19:28N 19°13' W 096°08'0 0.0
2017-Nov-04 18:58N 19°13' W 096°08'0 0.0
2017-Nov-04 18:28N 19°13' W 096°08'0 0.0
2017-Nov-04 17:58N 19°13' W 096°08'0 0.0
2017-Nov-04 17:25N 19°13' W 096°08'0 0.0
2017-Nov-04 16:58N 19°13' W 096°08'0 0.0
2017-Nov-04 16:28N 19°13' W 096°08'0 0.0
2017-Nov-04 15:52N 19°13' W 096°08'0 0.0
2017-Nov-04 15:28N 19°13' W 096°08'0 0.0
2017-Nov-04 14:58N 19°13' W 096°08'0 0.0
2017-Nov-04 14:28N 19°13' W 096°08'0 0.0
2017-Nov-04 13:58N 19°13' W 096°08'0 0.0
2017-Nov-04 13:28N 19°13' W 096°08'0 0.0
2017-Nov-04 12:58N 19°13' W 096°08'0 0.0
2017-Nov-04 12:28N 19°13' W 096°08'0 0.0
2017-Nov-04 11:58N 19°13' W 096°08'0 0.0
2017-Nov-04 11:28N 19°13' W 096°08'0 0.0
2017-Nov-04 10:55N 19°13' W 096°08'0 0.0
2017-Nov-04 10:28N 19°13' W 096°08'0 0.0
2017-Nov-04 09:58N 19°13' W 096°08'0 0.0
2017-Nov-04 09:25N 19°13' W 096°08'0 0.0
2017-Nov-04 08:58N 19°13' W 096°08'0 0.0
2017-Nov-04 08:28N 19°13' W 096°08'0 0.0
2017-Nov-04 07:55N 19°13' W 096°08'0 0.0
2017-Nov-04 07:28N 19°13' W 096°08'0 0.0
2017-Nov-04 06:55N 19°13' W 096°08'0 0.0
2017-Nov-04 06:25N 19°13' W 096°08'0 0.0
2017-Nov-04 05:58N 19°13' W 096°08'0 0.0
2017-Nov-04 05:25N 19°13' W 096°08'0 0.0
2017-Nov-04 04:58N 19°13' W 096°08'0 0.0
2017-Nov-04 04:28N 19°13' W 096°08'0 0.0
2017-Nov-04 03:58N 19°13' W 096°08'0 0.0
2017-Nov-04 03:28N 19°13' W 096°08'0 0.0
2017-Nov-04 02:58N 19°13' W 096°08'0 0.0
2017-Nov-04 02:28N 19°13' W 096°08'0 0.0
2017-Nov-04 01:58N 19°13' W 096°08'0 0.0
2017-Nov-04 01:19N 19°13' W 096°08'0 0.0
2017-Nov-04 00:58N 19°13' W 096°08'0 0.0
2017-Nov-04 00:28N 19°13' W 096°08'0 0.0
2017-Nov-03 23:58N 19°13' W 096°08'0 0.0
2017-Nov-03 23:28N 19°13' W 096°08'0 0.0
2017-Nov-03 22:58N 19°13' W 096°08'0 0.0
2017-Nov-03 22:28N 19°13' W 096°08'0 0.0
2017-Nov-03 21:52N 19°13' W 096°08'0 0.0
2017-Nov-03 21:22N 19°13' W 096°08'0 0.0
2017-Nov-03 20:46N 19°13' W 096°08'0 0.0
2017-Nov-03 20:28N 19°13' W 096°08'0 0.0
2017-Nov-03 19:58N 19°13' W 096°08'0 0.0
2017-Nov-03 19:28N 19°13' W 096°08'0 0.0
2017-Nov-03 18:58N 19°13' W 096°08'0 0.0
2017-Nov-03 18:28N 19°13' W 096°08'0 0.0
2017-Nov-03 17:58N 19°13' W 096°08'0 0.0
2017-Nov-03 17:28N 19°13' W 096°08'0 0.0
2017-Nov-03 16:58N 19°13' W 096°08'0 0.0
2017-Nov-03 16:22N 19°13' W 096°08'0 0.0
2017-Nov-03 15:58N 19°13' W 096°08'0 0.0
2017-Nov-03 15:28N 19°13' W 096°08'0 0.0
2017-Nov-03 14:58N 19°13' W 096°08'0 0.0
2017-Nov-03 14:28N 19°13' W 096°08'0 0.0
2017-Nov-03 13:58N 19°13' W 096°08'0 0.0
2017-Nov-03 13:22N 19°13' W 096°08'0 0.0
2017-Nov-03 12:58N 19°13' W 096°08'0 0.0
2017-Nov-03 12:28N 19°13' W 096°08'0 0.0
2017-Nov-03 11:55N 19°13' W 096°08'0 0.0
2017-Nov-03 11:28N 19°13' W 096°08'0 0.0
2017-Nov-03 10:46N 19°13' W 096°08'0 0.0
2017-Nov-03 10:28N 19°13' W 096°08'0 0.0
2017-Nov-03 09:52N 19°13' W 096°08'0 0.0
2017-Nov-03 09:19N 19°13' W 096°08'0 0.0
2017-Nov-03 08:58N 19°13' W 096°08'0 0.0
2017-Nov-03 08:28N 19°13' W 096°08'0 0.0
2017-Nov-03 07:58N 19°13' W 096°08'0 0.0
2017-Nov-03 07:28N 19°13' W 096°08'0 0.0
2017-Nov-03 06:55N 19°13' W 096°08'0 0.0
2017-Nov-03 06:28N 19°13' W 096°08'0 0.0
2017-Nov-03 05:58N 19°13' W 096°08'0 0.0
2017-Nov-03 05:28N 19°13' W 096°08'0 0.0
2017-Nov-03 04:58N 19°13' W 096°08'0 0.0
2017-Nov-03 04:28N 19°13' W 096°08'0 0.0
2017-Nov-03 03:55N 19°13' W 096°08'0 0.0
2017-Nov-03 03:28N 19°13' W 096°08'0 0.0
2017-Nov-03 02:58N 19°13' W 096°08'0 0.0
2017-Nov-03 02:28N 19°13' W 096°08'0 0.0
2017-Nov-03 01:58N 19°13' W 096°08'0 0.0
2017-Nov-03 01:28N 19°13' W 096°08'0 0.0
2017-Nov-03 00:58N 19°13' W 096°08'0 0.0
2017-Nov-03 00:28N 19°13' W 096°08'0 0.0
2017-Nov-03 00:00N 19°13' W 096°08'0 0.1
2017-Nov-02 23:28N 19°12' W 096°08'0 0.0
2017-Nov-02 22:58N 19°12' W 096°08'0 0.0
2017-Nov-02 22:28N 19°12' W 096°08'0 0.0
2017-Nov-02 21:58N 19°12' W 096°08'0 0.0
2017-Nov-02 21:28N 19°12' W 096°08'0 0.0
2017-Nov-02 20:58N 19°12' W 096°08'0 0.0
2017-Nov-02 20:28N 19°12' W 096°08'0 0.0
2017-Nov-02 19:58N 19°12' W 096°08'0 0.0
2017-Nov-02 19:28N 19°12' W 096°08'0 0.0
2017-Nov-02 18:58N 19°12' W 096°08'0 0.0
2017-Nov-02 18:28N 19°12' W 096°08'0 0.0
2017-Nov-02 17:58N 19°12' W 096°08'0 0.0
2017-Nov-02 17:25N 19°12' W 096°08'0 0.0
2017-Nov-02 16:58N 19°12' W 096°08'0 0.0
2017-Nov-02 16:28N 19°12' W 096°08'0 0.0
2017-Nov-02 15:52N 19°12' W 096°08'0 0.0
2017-Nov-02 15:28N 19°12' W 096°08'0 0.0
2017-Nov-02 14:58N 19°12' W 096°08'0 0.0
2017-Nov-02 14:28N 19°12' W 096°08'0 0.0
2017-Nov-02 13:58N 19°12' W 096°08'0 0.0
2017-Nov-02 13:28N 19°12' W 096°08'0 0.0
2017-Nov-02 12:58N 19°12' W 096°08'0 0.0
2017-Nov-02 12:28N 19°12' W 096°08'0 0.0
2017-Nov-02 11:58N 19°12' W 096°08'0 0.0
2017-Nov-02 11:28N 19°12' W 096°08'0 0.0
2017-Nov-02 10:58N 19°12' W 096°08'0 0.0
2017-Nov-02 10:28N 19°12' W 096°08'0 0.0
2017-Nov-02 09:58N 19°12' W 096°08'0 0.0
2017-Nov-02 09:28N 19°12' W 096°08'0 0.0
2017-Nov-02 08:58N 19°12' W 096°08'0 0.0
2017-Nov-02 08:25N 19°12' W 096°08'0 0.0
2017-Nov-02 07:58N 19°12' W 096°08'0 0.0
2017-Nov-02 07:25N 19°12' W 096°08'0 0.0
2017-Nov-02 06:58N 19°12' W 096°08'0 0.0
2017-Nov-02 06:28N 19°12' W 096°08'0 0.0
2017-Nov-02 05:58N 19°12' W 096°08'0 0.0
2017-Nov-02 05:28N 19°12' W 096°08'0 0.0
2017-Nov-02 04:58N 19°12' W 096°08'0 0.0
2017-Nov-02 04:28N 19°12' W 096°08'0 0.0
2017-Nov-02 03:58N 19°12' W 096°08'0 0.0
2017-Nov-02 03:28N 19°12' W 096°08'0 0.0
2017-Nov-02 02:58N 19°12' W 096°08'0 0.0
2017-Nov-02 02:25N 19°12' W 096°08'0 0.0
2017-Nov-02 01:58N 19°12' W 096°08'0 0.0
2017-Nov-02 01:28N 19°12' W 096°08'0 0.0
2017-Nov-02 00:58N 19°12' W 096°08'0 0.0
2017-Nov-02 00:28N 19°12' W 096°08'0 0.0
2017-Nov-01 23:58N 19°12' W 096°08'0 0.0
2017-Nov-01 23:28N 19°12' W 096°08'0 0.0
2017-Nov-01 22:58N 19°12' W 096°08'0 0.0
2017-Nov-01 22:28N 19°12' W 096°08'0 0.0
2017-Nov-01 21:58N 19°12' W 096°08'0 0.0
2017-Nov-01 21:28N 19°12' W 096°08'0 0.0
2017-Nov-01 20:58N 19°12' W 096°08'0 0.0
2017-Nov-01 20:28N 19°12' W 096°08'0 0.0
2017-Nov-01 19:58N 19°12' W 096°08'0 0.0
2017-Nov-01 19:28N 19°12' W 096°08'0 0.0
2017-Nov-01 18:58N 19°12' W 096°08'0 0.0
2017-Nov-01 18:28N 19°12' W 096°08'0 0.0
2017-Oct-31 20:35N 19°12' W 096°08'0 0.0
2017-Oct-31 20:29N 19°12' W 096°08'0 0.0
2017-Oct-31 19:59N 19°12' W 096°08'0 0.0
2017-Oct-31 19:29N 19°12' W 096°08'0 0.0
2017-Oct-31 18:59N 19°12' W 096°08'0 0.0
2017-Oct-31 18:29N 19°12' W 096°08'0 0.0
2017-Oct-31 17:59N 19°12' W 096°08'0 0.0
2017-Oct-31 17:29N 19°12' W 096°08'0 0.0
2017-Oct-31 16:59N 19°12' W 096°08'0 0.0
2017-Oct-31 16:29N 19°12' W 096°08'0 0.0
2017-Oct-31 15:59N 19°12' W 096°08'0 0.0
2017-Oct-31 15:23N 19°12' W 096°08'0 0.0
2017-Oct-31 14:59N 19°12' W 096°08'0 0.0
2017-Oct-31 14:29N 19°12' W 096°08'0 0.0
2017-Oct-31 13:59N 19°12' W 096°08'0 0.0
2017-Oct-31 13:29N 19°12' W 096°08'0 0.0
2017-Oct-31 12:59N 19°12' W 096°08'0 0.0
2017-Oct-31 12:29N 19°12' W 096°08'0 0.0
2017-Oct-31 11:59N 19°12' W 096°08'0 0.0
2017-Oct-31 11:29N 19°12' W 096°08'0 0.0
2017-Oct-31 10:59N 19°12' W 096°08'0 0.0
2017-Oct-31 10:29N 19°12' W 096°08'0 0.0
2017-Oct-31 09:59N 19°12' W 096°08'0 0.0
2017-Oct-31 09:23N 19°12' W 096°08'0 0.0
2017-Oct-31 08:59N 19°12' W 096°08'0 0.0
2017-Oct-31 08:29N 19°12' W 096°08'0 0.0
2017-Oct-31 07:59N 19°12' W 096°08'0 0.0
2017-Oct-31 07:29N 19°12' W 096°08'0 0.0
2017-Oct-31 06:59N 19°12' W 096°08'0 0.0
2017-Oct-31 06:29N 19°12' W 096°08'0 0.0
2017-Oct-31 05:59N 19°12' W 096°08'0 0.0
2017-Oct-31 05:29N 19°12' W 096°08'0 0.0
2017-Oct-31 04:59N 19°12' W 096°08'0 0.0
2017-Oct-31 04:29N 19°12' W 096°08'0 0.0
2017-Oct-31 03:59N 19°12' W 096°08'0 0.0
2017-Oct-31 03:29N 19°12' W 096°08'0 0.0
2017-Oct-31 02:59N 19°12' W 096°08'0 0.0
2017-Oct-31 02:29N 19°12' W 096°08'0 0.0
2017-Oct-31 01:59N 19°12' W 096°08'0 0.0
2017-Oct-31 01:29N 19°12' W 096°08'0 0.0
2017-Oct-31 00:59N 19°12' W 096°08'0 0.0
2017-Oct-31 00:29N 19°12' W 096°08'0 0.0
2017-Oct-30 23:59N 19°12' W 096°08'0 0.0
2017-Oct-30 23:29N 19°12' W 096°08'0 0.0
2017-Oct-30 22:59N 19°12' W 096°08'0 0.0
2017-Oct-30 22:29N 19°12' W 096°08'0 0.0
2017-Oct-30 21:59N 19°12' W 096°08'0 0.0
2017-Oct-30 21:29N 19°12' W 096°08'0 0.0
2017-Oct-30 20:59N 19°12' W 096°08'0 0.0
2017-Oct-30 20:29N 19°12' W 096°08'0 0.0
2017-Oct-30 19:59N 19°12' W 096°08'0 0.0
2017-Oct-30 19:29N 19°12' W 096°08'0 0.0
2017-Oct-30 18:59N 19°12' W 096°08'0 0.0
2017-Oct-30 18:29N 19°12' W 096°08'0 0.0
2017-Oct-30 17:59N 19°12' W 096°08'0 0.0
2017-Oct-30 17:23N 19°12' W 096°08'0 0.0
2017-Oct-30 16:59N 19°12' W 096°08'0 0.0
2017-Oct-30 16:29N 19°12' W 096°08'0 0.0
2017-Oct-30 15:59N 19°12' W 096°08'0 0.0
2017-Oct-30 15:29N 19°12' W 096°08'0 0.0
2017-Oct-30 14:59N 19°12' W 096°08'0 0.0
2017-Oct-30 14:29N 19°12' W 096°08'0 0.0
2017-Oct-30 13:29N 19°12' W 096°08'0 0.0
2017-Oct-30 12:59N 19°12' W 096°08'0 0.0
2017-Oct-30 12:29N 19°12' W 096°08'0 0.0
2017-Oct-30 11:59N 19°12' W 096°08'0 0.0
2017-Oct-30 11:29N 19°12' W 096°08'0 0.0
2017-Oct-30 10:59N 19°12' W 096°08'0 0.0
2017-Oct-30 10:29N 19°12' W 096°08'0 0.0
2017-Oct-30 09:59N 19°12' W 096°08'0 0.0
2017-Oct-30 09:29N 19°12' W 096°08'0 0.0
2017-Oct-30 08:59N 19°12' W 096°08'0 0.0
2017-Oct-30 08:29N 19°12' W 096°08'0 0.0
2017-Oct-30 07:53N 19°12' W 096°08'0 0.0
2017-Oct-30 07:29N 19°12' W 096°08'0 0.0
2017-Oct-30 06:59N 19°12' W 096°08'0 0.0
2017-Oct-30 06:29N 19°12' W 096°08'0 0.0
2017-Oct-30 05:59N 19°12' W 096°08'0 0.0
2017-Oct-30 05:29N 19°12' W 096°08'0 0.0
2017-Oct-30 04:59N 19°12' W 096°08'0 0.0
2017-Oct-30 04:29N 19°12' W 096°08'0 0.0
2017-Oct-30 03:59N 19°12' W 096°08'0 0.0
2017-Oct-30 03:29N 19°12' W 096°08'0 0.0
2017-Oct-30 02:59N 19°12' W 096°08'0 0.0
2017-Oct-30 02:29N 19°12' W 096°08'0 0.0
2017-Oct-30 01:59N 19°12' W 096°08'0 0.0
2017-Oct-30 01:29N 19°12' W 096°08'0 0.0
2017-Oct-30 00:59N 19°12' W 096°08'0 0.0
2017-Oct-30 00:29N 19°12' W 096°08'0 0.0
2017-Oct-29 23:59N 19°12' W 096°08'0 0.0
2017-Oct-29 23:29N 19°12' W 096°08'0 0.0
2017-Oct-29 22:59N 19°12' W 096°08'0 0.0
2017-Oct-29 22:29N 19°12' W 096°08'0 0.0
2017-Oct-29 21:59N 19°12' W 096°08'0 0.0
2017-Oct-29 21:29N 19°12' W 096°08'0 0.0
2017-Oct-29 20:59N 19°12' W 096°08'0 0.0
2017-Oct-29 20:23N 19°12' W 096°08'0 0.0
2017-Oct-29 19:59N 19°12' W 096°08'0 0.0
2017-Oct-29 19:29N 19°12' W 096°08'0 0.0
2017-Oct-29 18:59N 19°12' W 096°08'0 0.0
2017-Oct-29 18:29N 19°12' W 096°08'0 0.0
2017-Oct-29 17:59N 19°12' W 096°08'0 0.0
2017-Oct-29 17:29N 19°12' W 096°08'0 0.0
2017-Oct-29 16:59N 19°12' W 096°08'0 0.0
2017-Oct-29 16:29N 19°12' W 096°08'0 0.0
2017-Oct-29 15:59N 19°12' W 096°08'0 0.0
2017-Oct-29 15:29N 19°12' W 096°08'0 0.0
2017-Oct-29 14:59N 19°12' W 096°08'0 0.0
2017-Oct-29 14:29N 19°12' W 096°08'0 0.0
2017-Oct-29 13:59N 19°12' W 096°08'0 0.0
2017-Oct-29 13:29N 19°12' W 096°08'0 0.0
2017-Oct-29 12:59N 19°12' W 096°08'0 0.0
2017-Oct-29 12:29N 19°12' W 096°08'0 0.0
2017-Oct-29 11:59N 19°12' W 096°08'0 0.0
2017-Oct-29 11:29N 19°12' W 096°08'0 0.0
2017-Oct-29 10:59N 19°12' W 096°08'0 0.0
2017-Oct-29 10:29N 19°12' W 096°08'0 0.0
2017-Oct-29 09:59N 19°12' W 096°08'0 0.0
2017-Oct-29 09:29N 19°12' W 096°08'0 0.0
2017-Oct-29 08:59N 19°12' W 096°08'0 0.0
2017-Oct-29 08:29N 19°12' W 096°08'0 0.0
2017-Oct-29 07:59N 19°12' W 096°08'0 0.0
2017-Oct-29 07:29N 19°12' W 096°08'0 0.0
2017-Oct-29 06:59N 19°12' W 096°08'0 0.0
2017-Oct-29 06:29N 19°12' W 096°08'0 0.0
2017-Oct-29 05:59N 19°12' W 096°08'0 0.0
2017-Oct-29 05:29N 19°12' W 096°08'0 0.0
2017-Oct-29 04:59N 19°12' W 096°08'0 0.0
2017-Oct-29 04:29N 19°12' W 096°08'0 0.0
2017-Oct-29 03:59N 19°12' W 096°08'  

Dump ship's entire track history